createdAt,value
2023-04-17T00:01:10.970Z,8.35
2023-04-17T00:02:45.091Z,9.15
2023-04-17T00:04:22.136Z,9.02
2023-04-17T00:05:56.782Z,8.07
2023-04-17T00:07:28.753Z,9.15
2023-04-17T00:09:01.666Z,9.63
2023-04-17T00:10:34.568Z,10.07
2023-04-17T00:12:06.860Z,8.15
2023-04-17T00:13:39.726Z,9.57
2023-04-17T00:15:12.870Z,9.80
2023-04-17T00:16:47.276Z,9.10
2023-04-17T00:18:20.347Z,9.52
2023-04-17T00:19:53.274Z,9.48
2023-04-17T00:21:26.355Z,9.88
2023-04-17T00:22:59.324Z,9.38
2023-04-17T00:24:32.214Z,9.55
2023-04-17T00:26:04.263Z,9.55
2023-04-17T00:27:37.294Z,9.65
2023-04-17T00:29:10.464Z,9.80
2023-04-17T00:32:16.651Z,9.70
2023-04-17T00:33:49.689Z,9.10
2023-04-17T00:35:22.649Z,10.07
2023-04-17T00:36:54.568Z,8.18
2023-04-17T00:38:27.593Z,9.70
2023-04-17T00:40:00.552Z,10.57
2023-04-17T00:41:33.478Z,8.20
2023-04-17T00:43:08.077Z,8.38
2023-04-17T00:44:41.117Z,9.45
2023-04-17T00:46:14.284Z,9.70
2023-04-17T00:47:49.043Z,9.25
2023-04-17T00:49:22.767Z,8.65
2023-04-17T00:50:55.775Z,9.30
2023-04-17T00:52:29.898Z,10.27
2023-04-17T00:54:02.960Z,10.18
2023-04-17T00:55:37.417Z,11.25
2023-04-17T00:57:10.412Z,10.32
2023-04-17T00:58:43.444Z,8.95
2023-04-17T01:00:18.089Z,9.73
2023-04-17T01:01:51.181Z,10.93
2023-04-17T01:03:25.637Z,9.05
2023-04-17T01:04:58.810Z,9.00
2023-04-17T01:06:31.652Z,9.52
2023-04-17T01:08:04.989Z,10.73
2023-04-17T01:11:11.659Z,10.43
2023-04-17T01:12:46.715Z,10.20
2023-04-17T01:14:19.676Z,9.80
2023-04-17T01:15:52.706Z,9.52
2023-04-17T01:17:26.668Z,9.77
2023-04-17T01:19:01.758Z,10.95
2023-04-17T01:20:34.168Z,8.98
2023-04-17T01:22:07.137Z,10.00
2023-04-17T01:23:45.428Z,10.95
2023-04-17T01:25:20.108Z,10.10
2023-04-17T01:26:53.125Z,9.63
2023-04-17T01:28:26.124Z,10.43
2023-04-17T01:29:58.093Z,10.63
2023-04-17T01:31:31.457Z,10.30
2023-04-17T01:34:37.722Z,10.73
2023-04-17T01:36:11.218Z,10.73
2023-04-17T01:37:44.108Z,10.18
2023-04-17T01:39:17.218Z,9.30
2023-04-17T01:40:51.535Z,9.93
2023-04-17T01:42:24.501Z,9.13
2023-04-17T01:43:57.427Z,10.27
2023-04-17T01:45:30.348Z,12.38
2023-04-17T01:47:03.338Z,10.98
2023-04-17T01:48:37.057Z,11.35
2023-04-17T01:50:10.866Z,10.30
2023-04-17T01:51:43.833Z,12.10
2023-04-17T01:53:15.832Z,10.55
2023-04-17T01:54:48.821Z,11.15
2023-04-17T01:56:23.134Z,11.63
2023-04-17T01:57:55.071Z,9.80
2023-04-17T01:59:28.196Z,12.63
2023-04-17T02:01:01.424Z,10.90
2023-04-17T02:02:34.490Z,11.88
2023-04-17T02:04:07.693Z,11.15
2023-04-17T02:05:39.684Z,11.15
2023-04-17T02:07:12.568Z,10.75
2023-04-17T02:08:45.609Z,9.73
2023-04-17T02:10:18.666Z,10.98
2023-04-17T02:11:52.949Z,12.35
2023-04-17T02:13:24.838Z,11.18
2023-04-17T02:15:00.985Z,10.30
2023-04-17T02:16:34.443Z,10.63
2023-04-17T02:18:07.358Z,11.63
2023-04-17T02:19:40.328Z,10.63
2023-04-17T02:21:12.217Z,11.07
2023-04-17T02:22:45.368Z,10.93
2023-04-17T02:24:18.245Z,10.70
2023-04-17T02:25:50.160Z,11.15
2023-04-17T02:27:24.420Z,12.25
2023-04-17T02:28:56.289Z,10.02
2023-04-17T02:30:29.624Z,12.38
2023-04-17T02:33:36.358Z,12.40
2023-04-17T02:35:09.610Z,10.98
2023-04-17T02:36:42.472Z,12.20
2023-04-17T02:38:15.564Z,11.18
2023-04-17T02:39:48.560Z,12.50
2023-04-17T02:41:21.958Z,10.77
2023-04-17T02:44:28.426Z,13.73
2023-04-17T02:46:01.418Z,12.20
2023-04-17T02:47:34.374Z,11.82
2023-04-17T02:49:07.329Z,11.48
2023-04-17T02:50:39.329Z,10.90
2023-04-17T02:52:12.235Z,11.98
2023-04-17T02:53:44.171Z,9.20
2023-04-17T02:55:17.402Z,12.00
2023-04-17T02:56:50.931Z,13.27
2023-04-17T02:58:25.288Z,11.90
2023-04-17T02:59:57.269Z,11.52
2023-04-17T03:01:30.857Z,11.80
2023-04-17T03:03:04.063Z,11.27
2023-04-17T03:06:11.707Z,8.93
2023-04-17T03:07:44.731Z,11.82
2023-04-17T03:09:18.234Z,12.45
2023-04-17T03:10:51.189Z,10.20
2023-04-17T03:12:24.280Z,11.65
2023-04-17T03:13:58.522Z,12.38
2023-04-17T03:15:31.505Z,10.65
2023-04-17T03:17:03.561Z,11.00
2023-04-17T03:18:36.731Z,12.75
2023-04-17T03:20:09.505Z,12.13
2023-04-17T03:21:42.613Z,11.93
2023-04-17T03:23:15.624Z,10.80
2023-04-17T03:24:47.647Z,10.15
2023-04-17T03:26:20.585Z,11.20
2023-04-17T03:27:52.542Z,11.30
2023-04-17T03:29:26.966Z,10.75
2023-04-17T03:30:59.563Z,11.20
2023-04-17T03:32:32.955Z,12.68
2023-04-17T03:35:37.854Z,11.40
2023-04-17T03:37:10.727Z,12.02
2023-04-17T03:38:42.699Z,12.25
2023-04-17T03:40:15.622Z,11.65
2023-04-17T03:41:48.589Z,11.02
2023-04-17T03:43:21.529Z,11.57
2023-04-17T03:44:56.451Z,10.82
2023-04-17T03:46:29.517Z,10.63
2023-04-17T03:48:02.830Z,10.30
2023-04-17T03:49:34.809Z,13.23
2023-04-17T03:51:07.893Z,11.35
2023-04-17T03:52:40.828Z,11.88
2023-04-17T03:54:13.705Z,10.68
2023-04-17T03:55:46.766Z,10.32
2023-04-17T03:57:19.744Z,10.95
2023-04-17T03:58:52.710Z,11.20
2023-04-17T04:00:27.272Z,9.88
2023-04-17T04:02:00.611Z,12.50
2023-04-17T04:03:33.934Z,10.50
2023-04-17T04:06:42.669Z,11.00
2023-04-17T04:08:15.666Z,11.45
2023-04-17T04:09:48.589Z,10.00
2023-04-17T04:11:21.622Z,10.75
2023-04-17T04:12:54.586Z,11.40
2023-04-17T04:14:27.578Z,12.80
2023-04-17T04:16:01.141Z,13.70
2023-04-17T04:17:34.176Z,11.63
2023-04-17T04:19:07.073Z,10.68
2023-04-17T04:20:39.012Z,10.57
2023-04-17T04:22:13.728Z,10.18
2023-04-17T04:23:45.682Z,11.35
2023-04-17T04:25:18.773Z,9.77
2023-04-17T04:26:50.683Z,12.20
2023-04-17T04:28:24.219Z,12.38
2023-04-17T04:29:58.700Z,9.77
2023-04-17T04:31:33.249Z,10.32
2023-04-17T04:33:05.819Z,9.85
2023-04-17T04:34:39.170Z,11.95
2023-04-17T04:36:14.023Z,11.63
2023-04-17T04:37:47.286Z,11.38
2023-04-17T04:39:20.751Z,11.25
2023-04-17T04:40:53.693Z,10.07
2023-04-17T04:42:27.161Z,16.30
2023-04-17T04:44:00.300Z,12.05
2023-04-17T04:45:33.266Z,12.27
2023-04-17T04:47:07.684Z,11.45
2023-04-17T04:48:42.722Z,12.73
2023-04-17T04:50:16.403Z,11.00
2023-04-17T04:53:21.175Z,10.25
2023-04-17T04:54:54.207Z,10.68
2023-04-17T04:56:27.152Z,12.30
2023-04-17T04:58:00.161Z,11.82
2023-04-17T04:59:33.130Z,11.68
2023-04-17T05:01:06.945Z,11.00
2023-04-17T05:02:41.525Z,10.63
2023-04-17T05:04:14.643Z,11.20
2023-04-17T05:05:47.676Z,10.05
2023-04-17T05:07:20.692Z,10.52
2023-04-17T05:08:53.612Z,9.60
2023-04-17T05:10:26.516Z,10.43
2023-04-17T05:11:59.494Z,11.05
2023-04-17T05:13:32.556Z,11.20
2023-04-17T05:15:06.370Z,11.43
2023-04-17T05:16:39.392Z,11.40
2023-04-17T05:18:13.692Z,11.68
2023-04-17T05:19:47.692Z,10.93
2023-04-17T05:21:20.732Z,11.75
2023-04-17T05:22:53.677Z,11.20
2023-04-17T05:24:26.734Z,11.45
2023-04-17T05:25:59.719Z,10.32
2023-04-17T05:27:31.656Z,9.65
2023-04-17T05:29:04.731Z,11.07
2023-04-17T05:30:37.674Z,11.20
2023-04-17T05:32:11.072Z,11.02
2023-04-17T05:33:45.581Z,11.32
2023-04-17T05:35:18.672Z,9.68
2023-04-17T05:36:51.662Z,11.60
2023-04-17T05:38:24.591Z,11.18
2023-04-17T05:39:59.965Z,10.00
2023-04-17T05:41:32.937Z,12.07
2023-04-17T05:43:09.994Z,9.57
2023-04-17T05:44:42.923Z,11.23
2023-04-17T05:46:16.062Z,11.38
2023-04-17T05:47:49.138Z,11.07
2023-04-17T05:49:23.640Z,11.60
2023-04-17T05:50:56.936Z,10.18
2023-04-17T05:54:03.637Z,10.80
2023-04-17T05:55:36.644Z,11.25
2023-04-17T05:57:09.643Z,11.90
2023-04-17T05:58:42.884Z,11.63
2023-04-17T06:00:16.616Z,10.27
2023-04-17T06:01:49.748Z,9.20
2023-04-17T06:03:23.100Z,11.57
2023-04-17T06:04:58.488Z,11.98
2023-04-17T06:06:31.792Z,10.02
2023-04-17T06:08:05.005Z,14.52
2023-04-17T06:09:38.257Z,10.95
2023-04-17T06:11:11.421Z,13.10
2023-04-17T06:12:45.287Z,9.93
2023-04-17T06:14:18.556Z,10.75
2023-04-17T06:15:51.848Z,10.93
2023-04-17T06:17:24.945Z,12.05
2023-04-17T06:18:58.033Z,12.63
2023-04-17T06:20:32.472Z,12.55
2023-04-17T06:22:04.429Z,13.25
2023-04-17T06:23:37.507Z,14.75
2023-04-17T06:25:11.020Z,9.43
2023-04-17T06:26:44.125Z,9.63
2023-04-17T06:28:17.046Z,12.15
2023-04-17T06:29:50.404Z,10.07
2023-04-17T06:32:56.399Z,11.57
2023-04-17T06:34:29.339Z,11.30
2023-04-17T06:36:03.788Z,13.73
2023-04-17T06:37:36.827Z,11.77
2023-04-17T06:39:09.933Z,12.68
2023-04-17T06:42:16.897Z,12.93
2023-04-17T06:43:49.892Z,11.43
2023-04-17T06:45:22.917Z,12.20
2023-04-17T06:46:55.984Z,11.75
2023-04-17T06:48:29.019Z,12.63
2023-04-17T06:50:02.000Z,11.32
2023-04-17T06:51:36.253Z,11.93
2023-04-17T06:53:09.194Z,12.73
2023-04-17T06:54:42.175Z,11.60
2023-04-17T06:56:15.424Z,12.23
2023-04-17T06:57:48.447Z,11.40
2023-04-17T06:59:21.531Z,12.13
2023-04-17T07:00:54.513Z,14.45
2023-04-17T07:02:27.777Z,12.30
2023-04-17T07:04:00.992Z,10.68
2023-04-17T07:05:33.973Z,12.05
2023-04-17T07:07:08.481Z,10.35
2023-04-17T07:08:41.653Z,12.00
2023-04-17T07:10:15.866Z,11.75
2023-04-17T07:11:48.989Z,12.07
2023-04-17T07:13:22.033Z,12.98
2023-04-17T07:14:55.025Z,10.90
2023-04-17T07:16:28.140Z,13.32
2023-04-17T07:18:01.217Z,10.18
2023-04-17T07:19:35.199Z,11.45
2023-04-17T07:21:08.114Z,10.10
2023-04-17T07:22:43.241Z,10.05
2023-04-17T07:24:16.306Z,11.63
2023-04-17T07:25:49.294Z,11.80
2023-04-17T07:27:22.299Z,11.13
2023-04-17T07:28:55.490Z,12.73
2023-04-17T07:30:28.882Z,11.50
2023-04-17T07:33:34.894Z,9.98
2023-04-17T07:35:08.648Z,11.55
2023-04-17T07:36:41.663Z,11.85
2023-04-17T07:38:16.119Z,12.68
2023-04-17T07:39:50.404Z,15.13
2023-04-17T07:41:23.362Z,13.38
2023-04-17T07:42:56.822Z,12.35
2023-04-17T07:44:29.822Z,11.15
2023-04-17T07:46:02.872Z,12.43
2023-04-17T07:47:36.041Z,12.13
2023-04-17T07:49:12.206Z,10.63
2023-04-17T07:50:45.741Z,11.63
2023-04-17T07:52:18.773Z,12.07
2023-04-17T07:53:53.145Z,9.52
2023-04-17T07:55:26.066Z,11.60
2023-04-17T07:57:02.705Z,11.43
2023-04-17T07:58:36.312Z,11.23
2023-04-17T08:00:10.807Z,11.48
2023-04-17T08:01:43.923Z,10.27
2023-04-17T08:03:17.348Z,10.95
2023-04-17T08:04:52.273Z,11.32
2023-04-17T08:06:26.233Z,12.55
2023-04-17T08:08:00.287Z,9.68
2023-04-17T08:09:34.731Z,10.10
2023-04-17T08:11:07.759Z,9.75
2023-04-17T08:12:41.426Z,10.07
2023-04-17T08:14:15.743Z,9.60
2023-04-17T08:15:49.147Z,10.18
2023-04-17T08:20:29.330Z,8.93
2023-04-17T08:22:04.086Z,9.05
2023-04-17T08:23:37.083Z,9.55
2023-04-17T08:25:12.647Z,11.25
2023-04-17T08:26:45.577Z,9.10
2023-04-17T08:28:18.589Z,8.85
2023-04-17T08:29:53.526Z,8.82
2023-04-17T08:31:26.790Z,8.23
2023-04-17T08:34:32.892Z,10.23
2023-04-17T08:36:09.593Z,9.52
2023-04-17T08:37:44.399Z,9.35
2023-04-17T08:39:18.326Z,9.63
2023-04-17T08:40:55.119Z,11.48
2023-04-17T08:42:31.362Z,9.77
2023-04-17T08:44:05.064Z,7.63
2023-04-17T08:45:41.382Z,8.15
2023-04-17T08:47:14.602Z,7.43
2023-04-17T08:48:47.619Z,7.65
2023-04-17T08:50:21.904Z,8.43
2023-04-17T08:51:55.151Z,8.20
2023-04-17T08:53:28.081Z,7.70
2023-04-17T08:55:02.591Z,9.48
2023-04-17T08:56:37.260Z,9.35
2023-04-17T08:58:10.218Z,7.90
2023-04-17T08:59:43.606Z,7.97
2023-04-17T09:02:57.080Z,6.60
2023-04-17T09:04:38.176Z,7.22
2023-04-17T09:06:11.909Z,6.80
2023-04-17T09:07:44.798Z,6.72
2023-04-17T09:09:17.869Z,9.35
2023-04-17T09:10:51.802Z,8.02
2023-04-17T09:12:27.316Z,7.60
2023-04-17T09:14:01.414Z,9.38
2023-04-17T09:15:34.901Z,7.65
2023-04-17T09:17:08.033Z,8.57
2023-04-17T09:18:42.947Z,9.18
2023-04-17T09:20:17.346Z,7.00
2023-04-17T09:21:50.400Z,8.15
2023-04-17T09:23:23.695Z,7.72
2023-04-17T09:26:34.090Z,6.63
2023-04-17T09:28:14.010Z,6.75
2023-04-17T09:29:57.517Z,6.57
2023-04-17T09:31:34.576Z,7.07
2023-04-17T09:33:08.714Z,7.50
2023-04-17T09:34:42.279Z,6.57
2023-04-17T09:36:22.374Z,5.90
2023-04-17T09:37:58.788Z,6.25
2023-04-17T09:39:31.819Z,6.50
2023-04-17T09:41:05.076Z,5.57
2023-04-17T09:44:29.996Z,5.47
2023-04-17T09:46:03.351Z,5.35
2023-04-17T09:49:12.210Z,4.90
2023-04-17T09:50:45.977Z,6.05
2023-04-17T09:52:19.577Z,5.85
2023-04-17T09:53:53.728Z,5.50
2023-04-17T09:55:29.455Z,6.05
2023-04-17T09:57:03.631Z,6.40
2023-04-17T09:58:37.344Z,8.90
2023-04-17T10:00:15.107Z,5.45
2023-04-17T10:01:48.223Z,5.07
2023-04-17T10:03:21.789Z,4.53
2023-04-17T10:04:55.789Z,5.65
2023-04-17T10:06:29.215Z,5.47
2023-04-17T10:08:02.298Z,6.22
2023-04-17T10:09:35.506Z,4.55
2023-04-17T10:11:09.693Z,5.60
2023-04-17T10:12:43.283Z,5.13
2023-04-17T10:14:21.933Z,5.57
2023-04-17T10:15:56.372Z,4.95
2023-04-17T10:17:31.889Z,6.07
2023-04-17T10:19:27.812Z,5.60
2023-04-17T10:21:21.815Z,5.63
2023-04-17T10:22:56.358Z,5.20
2023-04-17T10:24:29.665Z,4.78
2023-04-17T10:26:45.706Z,4.63
2023-04-17T10:28:48.292Z,7.38
2023-04-17T10:30:23.025Z,6.75
2023-04-17T10:32:18.843Z,5.15
2023-04-17T10:33:54.277Z,5.32
2023-04-17T10:35:37.664Z,4.78
2023-04-17T10:37:15.152Z,4.55
2023-04-17T10:38:48.204Z,6.40
2023-04-17T10:40:22.450Z,7.47
2023-04-17T10:42:05.734Z,4.13
2023-04-17T10:43:42.643Z,6.05
2023-04-17T10:45:20.378Z,5.57
2023-04-17T10:46:53.373Z,5.60
2023-04-17T10:48:35.093Z,4.88
2023-04-17T10:50:10.598Z,5.85
2023-04-17T10:51:44.533Z,6.07
2023-04-17T10:53:43.728Z,4.22
2023-04-17T10:55:18.358Z,5.45
2023-04-17T10:56:55.852Z,4.38
2023-04-17T10:58:31.772Z,4.90
2023-04-17T11:00:18.384Z,4.30
2023-04-17T11:02:00.978Z,4.90
2023-04-17T11:03:37.300Z,4.82
2023-04-17T11:05:11.264Z,5.05
2023-04-17T11:06:46.216Z,4.50
2023-04-17T11:08:20.253Z,4.07
2023-04-17T11:09:53.918Z,5.57
2023-04-17T11:11:40.571Z,5.00
2023-04-17T11:13:17.015Z,5.00
2023-04-17T11:14:50.064Z,4.20
2023-04-17T11:16:23.315Z,5.30
2023-04-17T11:19:33.264Z,4.28
2023-04-17T11:21:06.738Z,4.53
2023-04-17T11:22:40.360Z,4.75
2023-04-17T11:24:13.427Z,5.43
2023-04-17T11:25:47.277Z,5.32
2023-04-17T11:27:20.404Z,5.07
2023-04-17T11:28:53.539Z,4.22
2023-04-17T11:30:29.630Z,5.13
2023-04-17T11:32:03.667Z,5.40
2023-04-17T11:33:37.877Z,6.25
2023-04-17T11:35:12.668Z,5.30
2023-04-17T11:36:51.066Z,5.50
2023-04-17T11:38:24.805Z,5.50
2023-04-17T11:40:08.250Z,9.68
2023-04-17T11:41:42.722Z,5.50
2023-04-17T11:43:15.910Z,4.70
2023-04-17T11:44:48.899Z,4.97
2023-04-17T11:46:21.918Z,4.65
2023-04-17T11:47:53.944Z,5.25
2023-04-17T11:49:27.538Z,4.85
2023-04-17T11:51:04.791Z,4.18
2023-04-17T11:52:38.799Z,4.10
2023-04-17T11:54:20.902Z,3.97
2023-04-17T11:56:15.723Z,3.40
2023-04-17T11:57:52.769Z,4.07
2023-04-17T11:59:31.691Z,5.28
2023-04-17T12:01:07.565Z,4.25
2023-04-17T12:02:40.592Z,4.35
2023-04-17T12:04:21.708Z,4.85
2023-04-17T12:06:02.140Z,3.58
2023-04-17T12:07:35.353Z,4.68
2023-04-17T12:09:19.403Z,2.65
2023-04-17T12:10:52.361Z,2.63
2023-04-17T12:12:25.279Z,4.22
2023-04-17T12:13:58.639Z,4.25
2023-04-17T12:17:04.396Z,3.65
2023-04-17T12:18:37.507Z,4.05
2023-04-17T12:20:11.237Z,4.53
2023-04-17T12:21:45.471Z,3.15
2023-04-17T12:23:18.468Z,2.95
2023-04-17T12:24:51.578Z,4.47
2023-04-17T12:26:25.282Z,3.30
2023-04-17T12:27:59.320Z,3.58
2023-04-17T12:29:42.958Z,4.57
2023-04-17T12:31:16.689Z,3.25
2023-04-17T12:32:49.709Z,3.60
2023-04-17T12:34:22.680Z,4.45
2023-04-17T12:35:55.879Z,4.13
2023-04-17T12:39:03.103Z,3.17
2023-04-17T12:40:36.109Z,3.45
2023-04-17T12:42:09.036Z,2.92
2023-04-17T12:43:42.395Z,3.30
2023-04-17T12:46:48.322Z,3.80
2023-04-17T12:48:21.279Z,3.20
2023-04-17T12:49:54.217Z,3.42
2023-04-17T12:51:28.012Z,4.30
2023-04-17T12:53:02.527Z,5.38
2023-04-17T12:54:35.968Z,4.03
2023-04-17T12:56:09.236Z,3.80
2023-04-17T12:59:14.962Z,4.38
2023-04-17T13:00:47.891Z,4.47
2023-04-17T13:02:23.465Z,4.43
2023-04-17T13:03:56.560Z,2.88
2023-04-17T13:05:30.388Z,3.42
2023-04-17T13:07:03.434Z,3.00
2023-04-17T13:08:37.787Z,3.72
2023-04-17T13:10:11.230Z,3.72
2023-04-17T13:11:44.350Z,4.15
2023-04-17T13:13:17.247Z,2.38
2023-04-17T13:14:50.386Z,3.63
2023-04-17T13:16:23.366Z,4.97
2023-04-17T13:17:56.839Z,3.03
2023-04-17T13:19:29.755Z,3.28
2023-04-17T13:21:02.634Z,2.75
2023-04-17T13:22:35.560Z,3.10
2023-04-17T13:24:14.424Z,3.55
2023-04-17T13:25:48.079Z,2.30
2023-04-17T13:27:20.975Z,4.07
2023-04-17T13:28:54.314Z,2.60
2023-04-17T13:32:00.173Z,2.42
2023-04-17T13:33:33.116Z,2.95
2023-04-17T13:35:08.774Z,3.13
2023-04-17T13:36:42.260Z,3.28
2023-04-17T13:38:15.093Z,4.20
2023-04-17T13:39:49.395Z,3.40
2023-04-17T13:41:22.388Z,2.88
2023-04-17T13:42:55.590Z,2.72
2023-04-17T13:44:29.246Z,3.17
2023-04-17T13:46:02.254Z,4.05
2023-04-17T13:47:35.201Z,2.75
2023-04-17T13:49:08.315Z,4.30
2023-04-17T13:50:41.508Z,2.67
2023-04-17T13:52:14.481Z,3.40
2023-04-17T13:53:47.405Z,2.45
2023-04-17T13:55:21.774Z,3.30
2023-04-17T13:56:54.982Z,4.25
2023-04-17T13:58:27.925Z,3.65
2023-04-17T14:00:00.859Z,3.15
2023-04-17T14:01:34.037Z,2.80
2023-04-17T14:03:07.071Z,3.10
2023-04-17T14:04:40.326Z,3.13
2023-04-17T14:07:46.030Z,2.45
2023-04-17T14:09:19.081Z,3.30
2023-04-17T14:10:53.371Z,2.35
2023-04-17T14:12:26.887Z,1.80
2023-04-17T14:13:59.848Z,2.35
2023-04-17T14:15:33.041Z,2.40
2023-04-17T14:17:05.928Z,2.72
2023-04-17T14:18:38.929Z,3.92
2023-04-17T14:20:14.881Z,4.15
2023-04-17T14:21:47.813Z,2.60
2023-04-17T14:23:20.774Z,2.63
2023-04-17T14:24:53.677Z,2.15
2023-04-17T14:26:28.086Z,3.65
2023-04-17T14:28:01.036Z,2.88
2023-04-17T14:29:33.962Z,1.85
2023-04-17T14:31:07.417Z,3.47
2023-04-17T14:32:40.472Z,2.33
2023-04-17T14:34:13.440Z,3.22
2023-04-17T14:35:46.449Z,2.42
2023-04-17T14:37:19.751Z,1.40
2023-04-17T14:40:27.135Z,2.60
2023-04-17T14:43:35.480Z,2.47
2023-04-17T14:45:09.715Z,2.97
2023-04-17T14:46:42.679Z,2.80
2023-04-17T14:48:15.604Z,2.58
2023-04-17T14:49:48.565Z,3.13
2023-04-17T14:52:55.744Z,2.03
2023-04-17T14:54:28.894Z,3.72
2023-04-17T14:56:01.862Z,3.35
2023-04-17T14:57:36.294Z,3.45
2023-04-17T14:59:09.293Z,2.78
2023-04-17T15:00:42.292Z,3.40
2023-04-17T15:02:15.461Z,1.52
2023-04-17T15:03:48.982Z,2.55
2023-04-17T15:05:22.664Z,3.20
2023-04-17T15:08:28.420Z,4.47
2023-04-17T15:10:01.422Z,3.58
2023-04-17T15:11:34.544Z,2.88
2023-04-17T15:13:08.818Z,1.80
2023-04-17T15:14:41.885Z,2.80
2023-04-17T15:16:14.915Z,3.42
2023-04-17T15:17:47.849Z,2.92
2023-04-17T15:19:20.779Z,2.95
2023-04-17T15:20:53.701Z,2.40
2023-04-17T15:22:27.084Z,2.65
2023-04-17T15:25:32.817Z,3.22
2023-04-17T15:27:05.705Z,2.97
2023-04-17T15:28:41.991Z,3.75
2023-04-17T15:30:15.869Z,4.45
2023-04-17T15:31:48.854Z,2.35
2023-04-17T15:33:21.829Z,3.85
2023-04-17T15:34:54.941Z,2.08
2023-04-17T15:36:31.221Z,2.72
2023-04-17T15:38:04.194Z,2.30
2023-04-17T15:39:38.284Z,2.90
2023-04-17T15:41:11.325Z,3.15
2023-04-17T15:42:44.313Z,3.60
2023-04-17T15:44:18.724Z,3.30
2023-04-17T15:45:52.853Z,2.88
2023-04-17T15:47:25.790Z,3.03
2023-04-17T15:49:08.140Z,4.00
2023-04-17T15:50:41.596Z,3.60
2023-04-17T15:52:14.582Z,3.08
2023-04-17T15:53:47.817Z,4.47
2023-04-17T15:55:21.295Z,4.70
2023-04-17T15:56:54.255Z,4.15
2023-04-17T15:58:27.231Z,4.18
2023-04-17T16:00:01.477Z,4.82
2023-04-17T16:01:34.636Z,4.95
2023-04-17T16:03:08.737Z,4.82
2023-04-17T16:04:43.606Z,5.47
2023-04-17T16:06:16.643Z,4.88
2023-04-17T16:07:49.714Z,3.55
2023-04-17T16:09:24.305Z,4.97
2023-04-17T16:10:57.229Z,4.47
2023-04-17T16:12:30.223Z,4.65
2023-04-17T16:14:03.278Z,4.05
2023-04-17T16:15:37.637Z,5.75
2023-04-17T16:17:10.685Z,4.47
2023-04-17T16:18:43.667Z,4.63
2023-04-17T16:20:16.826Z,4.93
2023-04-17T16:21:49.726Z,5.68
2023-04-17T16:23:22.697Z,5.68
2023-04-17T16:24:55.603Z,5.13
2023-04-17T16:26:30.302Z,4.53
2023-04-17T16:28:03.338Z,3.58
2023-04-17T16:29:36.696Z,4.30
2023-04-17T16:32:45.322Z,5.78
2023-04-17T16:34:19.224Z,6.70
2023-04-17T16:35:52.574Z,5.82
2023-04-17T16:38:58.168Z,6.13
2023-04-17T16:40:31.421Z,6.13
2023-04-17T16:43:37.017Z,6.93
2023-04-17T16:45:10.626Z,7.07
2023-04-17T16:47:02.996Z,6.78
2023-04-17T16:48:37.946Z,7.15
2023-04-17T16:51:44.799Z,7.55
2023-04-17T16:53:17.923Z,7.50
2023-04-17T16:54:50.827Z,8.10
2023-04-17T16:56:23.708Z,7.80
2023-04-17T16:57:57.238Z,7.32
2023-04-17T16:59:30.151Z,8.15
2023-04-17T17:01:03.090Z,8.35
2023-04-17T17:02:37.852Z,8.82
2023-04-17T17:04:11.023Z,7.45
2023-04-17T17:05:44.036Z,8.13
2023-04-17T17:07:17.035Z,7.43
2023-04-17T17:08:49.990Z,10.57
2023-04-17T17:10:22.972Z,8.88
2023-04-17T17:11:56.738Z,8.52
2023-04-17T17:13:29.779Z,9.52
2023-04-17T17:15:03.531Z,9.75
2023-04-17T17:16:37.399Z,8.85
2023-04-17T17:19:44.505Z,8.57
2023-04-17T17:21:17.710Z,9.32
2023-04-17T17:22:50.711Z,9.70
2023-04-17T17:24:23.637Z,11.45
2023-04-17T17:25:56.618Z,11.20
2023-04-17T17:27:29.547Z,11.88
2023-04-17T17:29:02.450Z,10.05
2023-04-17T17:30:35.461Z,9.82
2023-04-17T17:32:09.279Z,9.18
2023-04-17T17:35:17.371Z,10.27
2023-04-17T17:36:50.392Z,8.98
2023-04-17T17:38:23.540Z,9.88
2023-04-17T17:39:56.484Z,11.10
2023-04-17T17:41:29.405Z,9.32
2023-04-17T17:43:02.348Z,9.02
2023-04-17T17:44:35.307Z,9.20
2023-04-17T17:46:08.228Z,9.73
2023-04-17T17:47:41.225Z,8.50
2023-04-17T17:49:15.598Z,11.52
2023-04-17T17:50:48.865Z,9.30
2023-04-17T17:52:21.831Z,9.65
2023-04-17T17:53:55.355Z,9.98
2023-04-17T17:55:28.484Z,8.27
2023-04-17T17:57:01.563Z,8.35
2023-04-17T17:58:34.447Z,9.18
2023-04-17T18:00:09.137Z,8.50
2023-04-17T18:01:42.465Z,7.95
2023-04-17T18:04:51.127Z,7.35
2023-04-17T18:06:24.094Z,8.57
2023-04-17T18:07:57.036Z,7.82
2023-04-17T18:09:29.916Z,8.88
2023-04-17T18:11:02.980Z,8.18
2023-04-17T18:12:35.904Z,10.07
2023-04-17T18:14:08.876Z,8.35
2023-04-17T18:15:41.875Z,8.65
2023-04-17T18:17:14.963Z,9.02
2023-04-17T18:18:47.942Z,9.07
2023-04-17T18:20:22.572Z,9.48
2023-04-17T18:21:55.579Z,9.95
2023-04-17T18:23:28.456Z,9.93
2023-04-17T18:25:01.576Z,9.43
2023-04-17T18:26:34.521Z,9.32
2023-04-17T18:28:07.591Z,9.85
2023-04-17T18:29:40.507Z,10.07
2023-04-17T18:31:13.513Z,9.60
2023-04-17T18:32:46.547Z,10.35
2023-04-17T18:34:23.202Z,9.52
2023-04-17T18:35:57.569Z,11.93
2023-04-17T18:37:30.645Z,11.73
2023-04-17T18:39:03.614Z,11.38
2023-04-17T18:40:36.784Z,11.02
2023-04-17T18:42:09.753Z,11.57
2023-04-17T18:43:42.779Z,11.40
2023-04-17T18:45:16.179Z,10.50
2023-04-17T18:46:49.569Z,9.73
2023-04-17T18:48:22.694Z,10.30
2023-04-17T18:49:55.652Z,11.55
2023-04-17T18:51:29.926Z,10.48
2023-04-17T18:53:03.461Z,10.48
2023-04-17T18:54:36.772Z,11.25
2023-04-17T18:57:43.786Z,10.63
2023-04-17T18:59:16.749Z,11.45
2023-04-17T19:00:49.799Z,9.85
2023-04-17T19:02:22.957Z,11.60
2023-04-17T19:03:55.997Z,10.32
2023-04-17T19:05:29.007Z,11.10
2023-04-17T19:07:03.612Z,9.68
2023-04-17T19:08:39.368Z,10.00
2023-04-17T19:10:12.641Z,10.68
2023-04-17T19:11:45.860Z,10.57
2023-04-17T19:13:18.806Z,9.88
2023-04-17T19:14:51.923Z,10.65
2023-04-17T19:16:25.087Z,11.68
2023-04-17T19:17:58.184Z,10.82
2023-04-17T19:19:31.227Z,11.00
2023-04-17T19:21:04.137Z,10.05
2023-04-17T19:22:38.643Z,10.15
2023-04-17T19:24:11.501Z,10.85
2023-04-17T19:25:44.469Z,9.32
2023-04-17T19:27:17.486Z,9.68
2023-04-17T19:28:50.567Z,12.43
2023-04-17T19:30:23.539Z,9.48
2023-04-17T19:31:56.692Z,10.55
2023-04-17T19:33:29.786Z,11.38
2023-04-17T19:35:02.793Z,10.57
2023-04-17T19:36:36.008Z,10.25
2023-04-17T19:38:11.109Z,9.02
2023-04-17T19:39:44.104Z,10.90
2023-04-17T19:41:18.563Z,10.05
2023-04-17T19:42:51.554Z,10.10
2023-04-17T19:44:25.995Z,10.02
2023-04-17T19:46:00.819Z,10.18
2023-04-17T19:47:33.796Z,9.63
2023-04-17T19:49:06.757Z,10.50
2023-04-17T19:50:39.720Z,10.10
2023-04-17T19:52:12.833Z,11.43
2023-04-17T19:53:48.147Z,9.40
2023-04-17T19:55:21.291Z,10.52
2023-04-17T19:56:54.267Z,10.32
2023-04-17T19:58:27.280Z,10.60
2023-04-17T20:00:00.217Z,11.88
2023-04-17T20:01:33.559Z,10.77
2023-04-17T20:04:39.477Z,11.80
2023-04-17T20:06:13.838Z,11.20
2023-04-17T20:07:46.762Z,10.57
2023-04-17T20:09:21.375Z,10.93
2023-04-17T20:10:54.461Z,10.80
2023-04-17T20:12:27.519Z,12.30
2023-04-17T20:14:00.476Z,9.13
2023-04-17T20:15:33.449Z,11.00
2023-04-17T20:17:06.574Z,12.05
2023-04-17T20:18:39.920Z,10.82
2023-04-17T20:21:46.969Z,10.68
2023-04-17T20:23:20.250Z,10.00
2023-04-17T20:24:54.511Z,9.93
2023-04-17T20:26:27.790Z,9.93
2023-04-17T20:28:02.616Z,9.73
2023-04-17T20:29:35.563Z,9.43
2023-04-17T20:31:08.811Z,11.48
2023-04-17T20:34:15.855Z,11.73
2023-04-17T20:35:48.779Z,10.88
2023-04-17T20:37:23.723Z,10.93
2023-04-17T20:38:56.828Z,10.07
2023-04-17T20:40:31.250Z,9.50
2023-04-17T20:42:04.473Z,9.93
2023-04-17T20:43:37.436Z,10.77
2023-04-17T20:45:11.808Z,10.10
2023-04-17T20:46:44.947Z,11.70
2023-04-17T20:48:17.907Z,12.10
2023-04-17T20:49:50.886Z,11.35
2023-04-17T20:51:26.438Z,11.48
2023-04-17T20:52:59.368Z,10.75
2023-04-17T20:54:32.292Z,11.32
2023-04-17T20:56:06.701Z,11.80
2023-04-17T20:57:39.665Z,13.45
2023-04-17T20:59:12.757Z,11.02
2023-04-17T21:00:58.277Z,10.57
2023-04-17T21:02:33.986Z,10.63
2023-04-17T21:04:07.082Z,10.80
2023-04-17T21:05:40.048Z,12.00
2023-04-17T21:07:13.096Z,12.20
2023-04-17T21:08:46.002Z,11.90
2023-04-17T21:10:19.844Z,12.57
2023-04-17T21:11:54.258Z,10.80
2023-04-17T21:13:27.469Z,11.15
2023-04-17T21:15:00.453Z,11.18
2023-04-17T21:16:33.391Z,12.40
2023-04-17T21:18:06.488Z,13.15
2023-04-17T21:19:39.636Z,13.50
2023-04-17T21:21:12.622Z,12.73
2023-04-17T21:22:45.544Z,13.25
2023-04-17T21:24:18.410Z,11.52
2023-04-17T21:25:53.500Z,15.13
2023-04-17T21:27:27.803Z,11.85
2023-04-17T21:29:00.740Z,12.52
2023-04-17T21:30:33.702Z,13.23
2023-04-17T21:32:06.917Z,14.45
2023-04-17T21:33:40.094Z,11.27
2023-04-17T21:35:13.030Z,11.75
2023-04-17T21:36:45.938Z,12.27
2023-04-17T21:38:18.905Z,12.13
2023-04-17T21:39:51.880Z,14.57